sensor_id;sensor_type;location;lat;lon;timestamp;pressure;altitude;pressure_sealevel;temperature;humidity
40838;BME280;29632;49.168;9.848;2023-08-12T00:01:51;97154.28;;;25.83;45.21
40838;BME280;29632;49.168;9.848;2023-08-12T00:04:16;97155.78;;;25.79;45.17
40838;BME280;29632;49.168;9.848;2023-08-12T00:06:43;97157.06;;;25.76;45.08
40838;BME280;29632;49.168;9.848;2023-08-12T00:09:09;97157.97;;;25.70;45.66
40838;BME280;29632;49.168;9.848;2023-08-12T00:11:38;97155.19;;;25.65;45.56
40838;BME280;29632;49.168;9.848;2023-08-12T00:14:04;97146.50;;;25.58;45.62
40838;BME280;29632;49.168;9.848;2023-08-12T00:16:30;97148.81;;;25.54;45.96
40838;BME280;29632;49.168;9.848;2023-08-12T00:18:56;97143.25;;;25.56;45.80
40838;BME280;29632;49.168;9.848;2023-08-12T00:21:22;97148.59;;;25.56;45.75
40838;BME280;29632;49.168;9.848;2023-08-12T00:23:47;97142.22;;;25.57;45.83
40838;BME280;29632;49.168;9.848;2023-08-12T00:26:15;97129.34;;;25.54;45.74
40838;BME280;29632;49.168;9.848;2023-08-12T00:28:41;97133.88;;;25.53;45.74
40838;BME280;29632;49.168;9.848;2023-08-12T00:31:07;97135.72;;;25.53;45.52
40838;BME280;29632;49.168;9.848;2023-08-12T00:33:32;97123.44;;;25.52;45.57
40838;BME280;29632;49.168;9.848;2023-08-12T00:35:58;97123.88;;;25.49;45.78
40838;BME280;29632;49.168;9.848;2023-08-12T00:38:24;97123.53;;;25.45;45.77
40838;BME280;29632;49.168;9.848;2023-08-12T00:40:50;97123.31;;;25.47;45.77
40838;BME280;29632;49.168;9.848;2023-08-12T00:43:15;97124.56;;;25.44;45.79
40838;BME280;29632;49.168;9.848;2023-08-12T00:45:41;97122.72;;;25.44;45.78
40838;BME280;29632;49.168;9.848;2023-08-12T00:48:08;97120.06;;;25.44;45.73
40838;BME280;29632;49.168;9.848;2023-08-12T00:50:36;97113.91;;;25.44;45.82
40838;BME280;29632;49.168;9.848;2023-08-12T00:53:03;97117.41;;;25.44;45.75
40838;BME280;29632;49.168;9.848;2023-08-12T00:55:33;97115.78;;;25.43;45.61
40838;BME280;29632;49.168;9.848;2023-08-12T00:57:59;97117.84;;;25.41;45.76
40838;BME280;29632;49.168;9.848;2023-08-12T01:00:24;97111.38;;;25.37;45.74
40838;BME280;29632;49.168;9.848;2023-08-12T01:02:52;97108.72;;;25.37;45.80
40838;BME280;29632;49.168;9.848;2023-08-12T01:05:18;97107.88;;;25.37;45.97
40838;BME280;29632;49.168;9.848;2023-08-12T01:07:44;97106.28;;;25.36;45.80
40838;BME280;29632;49.168;9.848;2023-08-12T01:10:11;97101.16;;;25.34;45.79
40838;BME280;29632;49.168;9.848;2023-08-12T01:15:35;97085.13;;;25.22;46.11
40838;BME280;29632;49.168;9.848;2023-08-12T01:18:02;97085.94;;;25.23;45.99
40838;BME280;29632;49.168;9.848;2023-08-12T01:20:30;97079.78;;;25.22;46.16
40838;BME280;29632;49.168;9.848;2023-08-12T01:23:14;97078.16;;;25.21;46.17
40838;BME280;29632;49.168;9.848;2023-08-12T01:25:41;97072.03;;;25.21;45.73
40838;BME280;29632;49.168;9.848;2023-08-12T01:28:06;97071.00;;;25.22;45.76
40838;BME280;29632;49.168;9.848;2023-08-12T01:30:48;97072.03;;;25.21;46.01
40838;BME280;29632;49.168;9.848;2023-08-12T01:33:45;97063.22;;;25.20;45.51
40838;BME280;29632;49.168;9.848;2023-08-12T01:36:17;97070.41;;;25.20;45.61
40838;BME280;29632;49.168;9.848;2023-08-12T01:38:44;97062.16;;;25.21;45.63
40838;BME280;29632;49.168;9.848;2023-08-12T01:41:13;97059.50;;;25.21;45.64
40838;BME280;29632;49.168;9.848;2023-08-12T01:43:40;97064.03;;;25.21;45.79
40838;BME280;29632;49.168;9.848;2023-08-12T01:46:06;97061.13;;;25.22;45.69
40838;BME280;29632;49.168;9.848;2023-08-12T01:48:32;97054.78;;;25.23;45.81
40838;BME280;29632;49.168;9.848;2023-08-12T01:50:58;97057.66;;;25.22;45.64
40838;BME280;29632;49.168;9.848;2023-08-12T01:53:24;97060.34;;;25.22;45.67
40838;BME280;29632;49.168;9.848;2023-08-12T01:55:51;97049.44;;;25.23;45.60
40838;BME280;29632;49.168;9.848;2023-08-12T01:58:17;97049.44;;;25.23;45.79
40838;BME280;29632;49.168;9.848;2023-08-12T02:00:43;97052.34;;;25.22;45.64
40838;BME280;29632;49.168;9.848;2023-08-12T02:03:09;97053.16;;;25.22;45.77
40838;BME280;29632;49.168;9.848;2023-08-12T02:05:34;97043.78;;;25.20;45.48
40838;BME280;29632;49.168;9.848;2023-08-12T02:08:06;97042.94;;;25.19;45.76
40838;BME280;29632;49.168;9.848;2023-08-12T02:10:32;97047.13;;;25.15;45.90
40838;BME280;29632;49.168;9.848;2023-08-12T02:12:58;97052.69;;;25.14;45.73
40838;BME280;29632;49.168;9.848;2023-08-12T02:15:23;97052.91;;;25.12;45.57
40838;BME280;29632;49.168;9.848;2023-08-12T02:17:49;97056.84;;;25.10;45.94
40838;BME280;29632;49.168;9.848;2023-08-12T02:20:15;97057.75;;;25.03;46.10
40838;BME280;29632;49.168;9.848;2023-08-12T02:22:41;97051.50;;;24.98;45.97
40838;BME280;29632;49.168;9.848;2023-08-12T02:25:07;97049.28;;;24.95;46.03
40838;BME280;29632;49.168;9.848;2023-08-12T02:27:33;97049.16;;;24.90;46.05
40838;BME280;29632;49.168;9.848;2023-08-12T02:29:59;97045.91;;;24.87;46.19
40838;BME280;29632;49.168;9.848;2023-08-12T02:32:24;97051.56;;;24.79;46.75
40838;BME280;29632;49.168;9.848;2023-08-12T02:34:50;97040.44;;;24.71;46.88
40838;BME280;29632;49.168;9.848;2023-08-12T02:37:16;97043.56;;;24.67;46.55
40838;BME280;29632;49.168;9.848;2023-08-12T02:39:42;97045.41;;;24.67;46.82
40838;BME280;29632;49.168;9.848;2023-08-12T02:42:08;97042.97;;;24.65;46.91
40838;BME280;29632;49.168;9.848;2023-08-12T02:44:33;97042.16;;;24.65;47.07
40838;BME280;29632;49.168;9.848;2023-08-12T02:46:59;97043.56;;;24.67;46.73
40838;BME280;29632;49.168;9.848;2023-08-12T02:49:25;97037.06;;;24.63;46.66
40838;BME280;29632;49.168;9.848;2023-08-12T02:51:51;97033.69;;;24.56;47.12
40838;BME280;29632;49.168;9.848;2023-08-12T02:54:16;97030.78;;;24.58;47.04
40838;BME280;29632;49.168;9.848;2023-08-12T02:56:43;97026.84;;;24.60;46.72
40838;BME280;29632;49.168;9.848;2023-08-12T02:59:09;97026.63;;;24.62;46.69
40838;BME280;29632;49.168;9.848;2023-08-12T03:01:35;97023.53;;;24.65;46.71
40838;BME280;29632;49.168;9.848;2023-08-12T03:04:00;97027.59;;;24.67;46.58
40838;BME280;29632;49.168;9.848;2023-08-12T03:06:26;97016.94;;;24.67;46.71
40838;BME280;29632;49.168;9.848;2023-08-12T03:08:52;97015.88;;;24.68;46.89
40838;BME280;29632;49.168;9.848;2023-08-12T03:11:18;97015.88;;;24.68;46.53
40838;BME280;29632;49.168;9.848;2023-08-12T03:13:45;97010.56;;;24.68;46.74
40838;BME280;29632;49.168;9.848;2023-08-12T03:16:12;97016.47;;;24.71;46.42
40838;BME280;29632;49.168;9.848;2023-08-12T03:18:41;97009.31;;;24.71;46.45
40838;BME280;29632;49.168;9.848;2023-08-12T03:21:08;97013.81;;;24.71;46.70
40838;BME280;29632;49.168;9.848;2023-08-12T03:23:35;97003.75;;;24.73;46.58
40838;BME280;29632;49.168;9.848;2023-08-12T03:26:02;96999.22;;;24.73;46.58
40838;BME280;29632;49.168;9.848;2023-08-12T03:28:28;97012.31;;;24.75;46.36
40838;BME280;29632;49.168;9.848;2023-08-12T03:30:54;97004.09;;;24.76;46.68
40838;BME280;29632;49.168;9.848;2023-08-12T03:33:20;97009.19;;;24.78;46.63
40838;BME280;29632;49.168;9.848;2023-08-12T03:35:46;96996.69;;;24.78;46.55
40838;BME280;29632;49.168;9.848;2023-08-12T03:38:13;96995.63;;;24.79;46.41
40838;BME280;29632;49.168;9.848;2023-08-12T03:40:39;96991.38;;;24.78;46.53
40838;BME280;29632;49.168;9.848;2023-08-12T03:43:05;96987.66;;;24.79;46.45
40838;BME280;29632;49.168;9.848;2023-08-12T03:45:31;96987.88;;;24.78;46.63
40838;BME280;29632;49.168;9.848;2023-08-12T03:47:57;96986.03;;;24.78;46.75
40838;BME280;29632;49.168;9.848;2023-08-12T03:50:22;96981.53;;;24.79;46.74
40838;BME280;29632;49.168;9.848;2023-08-12T03:52:48;96980.50;;;24.80;46.64
40838;BME280;29632;49.168;9.848;2023-08-12T03:55:14;96982.94;;;24.81;46.78
40838;BME280;29632;49.168;9.848;2023-08-12T03:57:40;96984.53;;;24.82;46.70
40838;BME280;29632;49.168;9.848;2023-08-12T04:00:06;96993.31;;;24.83;46.97
40838;BME280;29632;49.168;9.848;2023-08-12T04:02:34;96992.31;;;24.84;46.63
40838;BME280;29632;49.168;9.848;2023-08-12T04:04:59;96992.53;;;24.82;46.91
40838;BME280;29632;49.168;9.848;2023-08-12T04:07:25;96987.44;;;24.81;47.02
40838;BME280;29632;49.168;9.848;2023-08-12T04:09:52;96995.41;;;24.81;46.63
40838;BME280;29632;49.168;9.848;2023-08-12T04:12:18;96995.19;;;24.82;46.81
40838;BME280;29632;49.168;9.848;2023-08-12T04:14:44;96992.06;;;24.85;46.94
40838;BME280;29632;49.168;9.848;2023-08-12T04:17:09;96992.06;;;24.85;46.93
40838;BME280;29632;49.168;9.848;2023-08-12T04:19:35;96993.09;;;24.84;46.94
40838;BME280;29632;49.168;9.848;2023-08-12T04:22:01;96982.09;;;24.81;46.96
40838;BME280;29632;49.168;9.848;2023-08-12T04:24:27;96988.00;;;24.83;47.47
40838;BME280;29632;49.168;9.848;2023-08-12T04:26:52;96992.41;;;24.77;47.57
40838;BME280;29632;49.168;9.848;2023-08-12T04:29:18;96994.47;;;24.75;47.70
40838;BME280;29632;49.168;9.848;2023-08-12T04:31:44;96993.91;;;24.73;47.81
40838;BME280;29632;49.168;9.848;2023-08-12T04:34:09;96995.78;;;24.73;48.08
40838;BME280;29632;49.168;9.848;2023-08-12T04:36:35;96989.38;;;24.74;47.99
40838;BME280;29632;49.168;9.848;2023-08-12T04:39:01;96993.09;;;24.73;48.09
40838;BME280;29632;49.168;9.848;2023-08-12T04:41:26;96992.06;;;24.74;47.88
40838;BME280;29632;49.168;9.848;2023-08-12T04:43:52;96996.94;;;24.77;48.13
40838;BME280;29632;49.168;9.848;2023-08-12T04:46:18;96997.50;;;24.79;47.95
40838;BME280;29632;49.168;9.848;2023-08-12T04:48:44;96992.53;;;24.82;48.14
40838;BME280;29632;49.168;9.848;2023-08-12T04:51:09;96990.66;;;24.83;47.71
40838;BME280;29632;49.168;9.848;2023-08-12T04:53:35;96993.09;;;24.84;47.79
40838;BME280;29632;49.168;9.848;2023-08-12T04:56:01;96988.47;;;24.80;47.98
40838;BME280;29632;49.168;9.848;2023-08-12T04:58:27;96998.06;;;24.81;48.10
40838;BME280;29632;49.168;9.848;2023-08-12T05:00:53;96995.75;;;24.84;47.97
40838;BME280;29632;49.168;9.848;2023-08-12T05:03:19;97002.94;;;24.84;48.14
40838;BME280;29632;49.168;9.848;2023-08-12T05:05:50;96998.91;;;24.81;48.16
40838;BME280;29632;49.168;9.848;2023-08-12T05:08:16;97001.66;;;24.86;48.32
40838;BME280;29632;49.168;9.848;2023-08-12T05:10:41;96996.59;;;24.85;48.31
40838;BME280;29632;49.168;9.848;2023-08-12T05:13:07;96996.59;;;24.85;48.17
40838;BME280;29632;49.168;9.848;2023-08-12T05:15:33;96991.84;;;24.87;48.43
40838;BME280;29632;49.168;9.848;2023-08-12T05:17:59;96983.03;;;24.86;48.41
40838;BME280;29632;49.168;9.848;2023-08-12T05:20:24;96980.97;;;24.88;48.64
40838;BME280;29632;49.168;9.848;2023-08-12T05:22:50;96993.81;;;24.92;48.92
40838;BME280;29632;49.168;9.848;2023-08-12T05:25:16;96997.88;;;24.94;48.61
40838;BME280;29632;49.168;9.848;2023-08-12T05:27:41;96983.88;;;24.99;48.47
40838;BME280;29632;49.168;9.848;2023-08-12T05:30:07;96969.03;;;25.03;48.85
40838;BME280;29632;49.168;9.848;2023-08-12T05:32:33;96974.72;;;25.06;48.43
40838;BME280;29632;49.168;9.848;2023-08-12T05:34:59;96992.91;;;25.10;48.40
40838;BME280;29632;49.168;9.848;2023-08-12T05:37:25;96992.69;;;25.11;48.48
40838;BME280;29632;49.168;9.848;2023-08-12T05:39:50;96998.59;;;25.13;48.46
40838;BME280;29632;49.168;9.848;2023-08-12T05:42:16;96998.94;;;25.17;48.67
40838;BME280;29632;49.168;9.848;2023-08-12T05:44:42;96993.94;;;25.20;48.17
40838;BME280;29632;49.168;9.848;2023-08-12T05:47:08;96996.16;;;25.23;48.41
40838;BME280;29632;49.168;9.848;2023-08-12T05:49:34;97000.41;;;25.24;48.68
40838;BME280;29632;49.168;9.848;2023-08-12T05:51:59;97007.41;;;25.25;48.28
40838;BME280;29632;49.168;9.848;2023-08-12T05:54:26;97009.84;;;25.27;48.27
40838;BME280;29632;49.168;9.848;2023-08-12T05:56:51;97006.47;;;25.32;48.40
40838;BME280;29632;49.168;9.848;2023-08-12T05:59:17;97006.00;;;25.35;48.57
40838;BME280;29632;49.168;9.848;2023-08-12T06:01:43;97009.81;;;25.39;48.19
40838;BME280;29632;49.168;9.848;2023-08-12T06:04:08;97022.69;;;25.42;48.54
40838;BME280;29632;49.168;9.848;2023-08-12T06:06:34;97022.22;;;25.45;48.78
40838;BME280;29632;49.168;9.848;2023-08-12T06:09:00;97012.16;;;25.47;48.73
40838;BME280;29632;49.168;9.848;2023-08-12T06:11:25;97008.56;;;25.53;48.47
40838;BME280;29632;49.168;9.848;2023-08-12T06:13:51;97014.00;;;25.58;48.23
40838;BME280;29632;49.168;9.848;2023-08-12T06:16:17;97005.28;;;25.63;48.88
40838;BME280;29632;49.168;9.848;2023-08-12T06:18:42;97014.69;;;25.66;48.81
40838;BME280;29632;49.168;9.848;2023-08-12T06:21:08;97011.56;;;25.69;48.85
40838;BME280;29632;49.168;9.848;2023-08-12T06:23:34;96999.34;;;25.73;48.39
40838;BME280;29632;49.168;9.848;2023-08-12T06:25:59;97000.50;;;25.77;48.53
40838;BME280;29632;49.168;9.848;2023-08-12T06:28:25;96992.84;;;25.80;48.38
40838;BME280;29632;49.168;9.848;2023-08-12T06:30:51;97008.94;;;25.86;48.38
40838;BME280;29632;49.168;9.848;2023-08-12T06:33:17;97011.94;;;25.89;48.37
40838;BME280;29632;49.168;9.848;2023-08-12T06:35:42;97010.69;;;25.92;48.74
40838;BME280;29632;49.168;9.848;2023-08-12T06:38:09;97003.47;;;25.92;48.72
40838;BME280;29632;49.168;9.848;2023-08-12T06:40:39;97006.50;;;25.96;48.56
40838;BME280;29632;49.168;9.848;2023-08-12T06:43:04;96999.91;;;25.98;48.54
40838;BME280;29632;49.168;9.848;2023-08-12T06:45:30;97001.03;;;26.03;48.63
40838;BME280;29632;49.168;9.848;2023-08-12T06:47:56;96994.41;;;26.05;48.48
40838;BME280;29632;49.168;9.848;2023-08-12T06:50:22;96992.06;;;26.09;48.73
40838;BME280;29632;49.168;9.848;2023-08-12T06:52:48;96996.72;;;26.13;48.60
40838;BME280;29632;49.168;9.848;2023-08-12T06:55:13;96990.91;;;26.16;48.71
40838;BME280;29632;49.168;9.848;2023-08-12T06:57:39;97001.66;;;26.22;48.43
40838;BME280;29632;49.168;9.848;2023-08-12T07:00:06;97011.63;;;26.26;48.30
40838;BME280;29632;49.168;9.848;2023-08-12T07:02:31;97011.72;;;26.31;48.35
40838;BME280;29632;49.168;9.848;2023-08-12T07:04:57;97016.34;;;26.36;48.33
40838;BME280;29632;49.168;9.848;2023-08-12T07:07:23;97010.75;;;26.37;48.34
40838;BME280;29632;49.168;9.848;2023-08-12T07:09:49;97007.63;;;26.41;48.59
40838;BME280;29632;49.168;9.848;2023-08-12T07:12:15;97002.38;;;26.46;48.66
40838;BME280;29632;49.168;9.848;2023-08-12T07:14:40;96997.13;;;26.51;48.23
40838;BME280;29632;49.168;9.848;2023-08-12T07:17:06;96991.59;;;26.57;48.20
40838;BME280;29632;49.168;9.848;2023-08-12T07:19:32;96984.53;;;26.63;47.95
40838;BME280;29632;49.168;9.848;2023-08-12T07:21:57;96993.44;;;26.69;48.19
40838;BME280;29632;49.168;9.848;2023-08-12T07:24:23;96994.00;;;26.71;48.11
40838;BME280;29632;49.168;9.848;2023-08-12T07:26:49;96995.97;;;26.75;48.00
40838;BME280;29632;49.168;9.848;2023-08-12T07:29:14;96990.19;;;26.84;47.97
40838;BME280;29632;49.168;9.848;2023-08-12T07:31:40;96982.59;;;26.92;47.93
40838;BME280;29632;49.168;9.848;2023-08-12T07:34:06;96983.22;;;27.00;47.71
40838;BME280;29632;49.168;9.848;2023-08-12T07:36:32;96983.06;;;27.06;47.48
40838;BME280;29632;49.168;9.848;2023-08-12T07:38:58;96998.84;;;27.08;47.35
40838;BME280;29632;49.168;9.848;2023-08-12T07:41:24;96996.75;;;27.10;47.02
40838;BME280;29632;49.168;9.848;2023-08-12T07:43:53;97002.41;;;27.13;47.33
40838;BME280;29632;49.168;9.848;2023-08-12T07:46:19;96998.78;;;27.20;47.48
40838;BME280;29632;49.168;9.848;2023-08-12T07:48:44;97008.25;;;27.27;47.20
40838;BME280;29632;49.168;9.848;2023-08-12T07:51:10;97011.06;;;27.38;47.29
40838;BME280;29632;49.168;9.848;2023-08-12T07:53:36;97010.97;;;27.49;47.12
40838;BME280;29632;49.168;9.848;2023-08-12T07:56:02;97007.13;;;27.62;47.09
40838;BME280;29632;49.168;9.848;2023-08-12T07:58:27;97015.84;;;27.75;46.91
40838;BME280;29632;49.168;9.848;2023-08-12T08:00:54;97012.25;;;27.86;46.81
40838;BME280;29632;49.168;9.848;2023-08-12T08:03:20;97004.63;;;27.95;46.42
40838;BME280;29632;49.168;9.848;2023-08-12T08:05:45;97006.59;;;28.04;46.48
40838;BME280;29632;49.168;9.848;2023-08-12T08:08:13;97009.94;;;28.17;45.83
40838;BME280;29632;49.168;9.848;2023-08-12T08:10:39;97003.34;;;28.24;45.50
40838;BME280;29632;49.168;9.848;2023-08-12T08:13:04;97002.63;;;28.34;45.35
40838;BME280;29632;49.168;9.848;2023-08-12T08:15:30;97002.97;;;28.43;45.20
40838;BME280;29632;49.168;9.848;2023-08-12T08:17:56;97009.50;;;28.52;45.28
40838;BME280;29632;49.168;9.848;2023-08-12T08:20:22;97006.13;;;28.62;45.19
40838;BME280;29632;49.168;9.848;2023-08-12T08:22:48;97005.13;;;28.68;44.95
40838;BME280;29632;49.168;9.848;2023-08-12T08:25:13;96999.31;;;28.76;45.00
40838;BME280;29632;49.168;9.848;2023-08-12T08:27:39;96998.22;;;28.77;44.94
40838;BME280;29632;49.168;9.848;2023-08-12T08:30:06;97000.66;;;28.79;44.68
40838;BME280;29632;49.168;9.848;2023-08-12T08:32:33;97002.03;;;28.87;45.11
40838;BME280;29632;49.168;9.848;2023-08-12T08:34:59;96995.69;;;28.93;44.94
40838;BME280;29632;49.168;9.848;2023-08-12T08:37:24;96994.97;;;29.03;44.54
40838;BME280;29632;49.168;9.848;2023-08-12T08:39:50;97000.66;;;29.11;44.59
40838;BME280;29632;49.168;9.848;2023-08-12T08:42:17;97003.41;;;29.22;44.93
40838;BME280;29632;49.168;9.848;2023-08-12T08:44:46;97007.22;;;29.31;44.52
40838;BME280;29632;49.168;9.848;2023-08-12T08:47:18;97002.72;;;29.42;44.60
40838;BME280;29632;49.168;9.848;2023-08-12T08:49:45;96989.91;;;29.54;44.66
40838;BME280;29632;49.168;9.848;2023-08-12T08:52:12;97000.72;;;29.64;44.52
40838;BME280;29632;49.168;9.848;2023-08-12T08:54:39;97002.13;;;29.77;44.35
40838;BME280;29632;49.168;9.848;2023-08-12T08:57:05;97008.63;;;29.91;43.93
40838;BME280;29632;49.168;9.848;2023-08-12T08:59:31;97011.63;;;30.05;43.88
40838;BME280;29632;49.168;9.848;2023-08-12T09:01:58;97008.97;;;30.16;43.98
40838;BME280;29632;49.168;9.848;2023-08-12T09:04:25;97014.09;;;30.22;43.77
40838;BME280;29632;49.168;9.848;2023-08-12T09:06:52;97013.84;;;30.29;44.04
40838;BME280;29632;49.168;9.848;2023-08-12T09:09:20;97013.91;;;30.39;43.85
40838;BME280;29632;49.168;9.848;2023-08-12T09:11:47;97009.06;;;30.46;43.41
40838;BME280;29632;49.168;9.848;2023-08-12T09:14:13;97007.72;;;30.54;43.87
40838;BME280;29632;49.168;9.848;2023-08-12T09:16:40;97012.59;;;30.62;43.34
40838;BME280;29632;49.168;9.848;2023-08-12T09:19:06;97007.22;;;30.67;43.31
40838;BME280;29632;49.168;9.848;2023-08-12T09:21:31;97010.19;;;30.76;43.02
40838;BME280;29632;49.168;9.848;2023-08-12T09:24:03;97001.03;;;30.82;43.09
40838;BME280;29632;49.168;9.848;2023-08-12T09:26:30;96996.22;;;30.90;42.63
40838;BME280;29632;49.168;9.848;2023-08-12T09:28:56;96998.94;;;30.95;42.62
40838;BME280;29632;49.168;9.848;2023-08-12T09:31:25;97002.13;;;31.02;42.21
40838;BME280;29632;49.168;9.848;2023-08-12T09:33:52;96996.75;;;31.07;42.23
40838;BME280;29632;49.168;9.848;2023-08-12T09:36:18;96994.59;;;31.14;42.17
40838;BME280;29632;49.168;9.848;2023-08-12T09:38:45;96997.56;;;31.13;42.14
40838;BME280;29632;49.168;9.848;2023-08-12T09:41:10;96997.56;;;31.13;42.36
40838;BME280;29632;49.168;9.848;2023-08-12T09:43:44;97002.09;;;31.17;42.23
40838;BME280;29632;49.168;9.848;2023-08-12T09:46:13;96989.47;;;31.28;42.31
40838;BME280;29632;49.168;9.848;2023-08-12T09:48:40;96993.47;;;31.41;42.09
40838;BME280;29632;49.168;9.848;2023-08-12T09:51:06;96990.50;;;31.53;42.20
40838;BME280;29632;49.168;9.848;2023-08-12T09:53:33;96996.38;;;31.65;42.10
40838;BME280;29632;49.168;9.848;2023-08-12T09:56:07;96995.53;;;31.70;41.44
40838;BME280;29632;49.168;9.848;2023-08-12T09:58:36;97000.88;;;31.80;41.22
40838;BME280;29632;49.168;9.848;2023-08-12T10:01:06;96999.25;;;31.89;41.04
40838;BME280;29632;49.168;9.848;2023-08-12T10:03:34;96999.47;;;31.98;41.08
40838;BME280;29632;49.168;9.848;2023-08-12T10:06:01;96990.28;;;32.09;41.32
40838;BME280;29632;49.168;9.848;2023-08-12T10:08:29;96993.44;;;32.22;41.31
40838;BME280;29632;49.168;9.848;2023-08-12T10:10:55;96991.50;;;32.32;40.54
40838;BME280;29632;49.168;9.848;2023-08-12T10:13:24;96993.84;;;32.44;40.34
40838;BME280;29632;49.168;9.848;2023-08-12T10:15:50;96991.09;;;32.54;40.13
40838;BME280;29632;49.168;9.848;2023-08-12T10:18:18;96977.84;;;32.63;39.73
40838;BME280;29632;49.168;9.848;2023-08-12T10:20:45;96974.59;;;32.66;40.03
40838;BME280;29632;49.168;9.848;2023-08-12T10:23:17;96973.16;;;32.74;39.68
40838;BME280;29632;49.168;9.848;2023-08-12T10:25:47;96968.75;;;32.83;39.44
40838;BME280;29632;49.168;9.848;2023-08-12T10:28:14;96957.13;;;32.88;39.49
40838;BME280;29632;49.168;9.848;2023-08-12T10:30:45;96958.66;;;32.99;39.52
40838;BME280;29632;49.168;9.848;2023-08-12T10:33:11;96953.47;;;33.08;39.18
40838;BME280;29632;49.168;9.848;2023-08-12T10:35:45;96946.38;;;33.17;39.28
40838;BME280;29632;49.168;9.848;2023-08-12T10:38:16;96945.44;;;33.27;39.15
40838;BME280;29632;49.168;9.848;2023-08-12T10:40:42;96946.44;;;33.36;38.85
40838;BME280;29632;49.168;9.848;2023-08-12T10:43:08;96945.78;;;33.44;38.85
40838;BME280;29632;49.168;9.848;2023-08-12T10:45:52;96944.41;;;33.47;39.04
40838;BME280;29632;49.168;9.848;2023-08-12T10:48:24;96941.59;;;33.57;38.55
40838;BME280;29632;49.168;9.848;2023-08-12T10:50:56;96945.53;;;33.65;38.79
40838;BME280;29632;49.168;9.848;2023-08-12T10:53:28;96934.13;;;33.73;38.50
40838;BME280;29632;49.168;9.848;2023-08-12T10:56:01;96935.38;;;33.81;38.28
40838;BME280;29632;49.168;9.848;2023-08-12T10:58:41;96922.91;;;33.85;38.06
40838;BME280;29632;49.168;9.848;2023-08-12T11:01:16;96921.16;;;33.94;37.74
40838;BME280;29632;49.168;9.848;2023-08-12T11:03:43;96909.78;;;33.97;37.72
40838;BME280;29632;49.168;9.848;2023-08-12T11:06:10;96917.50;;;34.04;37.38
40838;BME280;29632;49.168;9.848;2023-08-12T11:08:36;96916.56;;;34.14;36.52
40838;BME280;29632;49.168;9.848;2023-08-12T11:11:19;96923.78;;;34.18;36.80
40838;BME280;29632;49.168;9.848;2023-08-12T11:13:53;96912.72;;;34.20;36.34
40838;BME280;29632;49.168;9.848;2023-08-12T11:16:18;96922.34;;;34.26;36.51
40838;BME280;29632;49.168;9.848;2023-08-12T11:18:44;96918.25;;;34.29;35.82
40838;BME280;29632;49.168;9.848;2023-08-12T11:21:12;96928.75;;;34.30;35.75
40838;BME280;29632;49.168;9.848;2023-08-12T11:23:38;96936.00;;;34.35;36.06
40838;BME280;29632;49.168;9.848;2023-08-12T11:26:05;96932.91;;;34.41;36.19
40838;BME280;29632;49.168;9.848;2023-08-12T11:28:30;96928.31;;;34.42;35.58
40838;BME280;29632;49.168;9.848;2023-08-12T11:30:57;96919.41;;;34.41;35.51
40838;BME280;29632;49.168;9.848;2023-08-12T11:33:24;96920.78;;;34.39;35.28
40838;BME280;29632;49.168;9.848;2023-08-12T11:35:50;96920.50;;;34.40;35.09
40838;BME280;29632;49.168;9.848;2023-08-12T11:38:16;96916.63;;;34.47;35.41
40838;BME280;29632;49.168;9.848;2023-08-12T11:40:42;96904.94;;;34.51;35.48
40838;BME280;29632;49.168;9.848;2023-08-12T11:43:08;96892.13;;;34.57;35.67
40838;BME280;29632;49.168;9.848;2023-08-12T11:45:34;96894.53;;;34.58;35.00
40838;BME280;29632;49.168;9.848;2023-08-12T11:48:00;96898.31;;;34.57;35.04
40838;BME280;29632;49.168;9.848;2023-08-12T11:50:27;96901.31;;;34.56;34.91
40838;BME280;29632;49.168;9.848;2023-08-12T11:52:54;96884.09;;;34.52;35.00
40838;BME280;29632;49.168;9.848;2023-08-12T11:55:21;96887.59;;;34.52;35.41
40838;BME280;29632;49.168;9.848;2023-08-12T11:57:47;96881.97;;;34.49;35.37
40838;BME280;29632;49.168;9.848;2023-08-12T12:00:13;96874.94;;;34.48;35.41
40838;BME280;29632;49.168;9.848;2023-08-12T12:02:51;96878.47;;;34.48;35.02
40838;BME280;29632;49.168;9.848;2023-08-12T12:05:27;96877.56;;;34.53;35.71
40838;BME280;29632;49.168;9.848;2023-08-12T12:07:54;96885.88;;;34.56;35.17
40838;BME280;29632;49.168;9.848;2023-08-12T12:10:29;96895.31;;;34.59;35.24
40838;BME280;29632;49.168;9.848;2023-08-12T12:12:55;96918.78;;;34.64;35.38
40838;BME280;29632;49.168;9.848;2023-08-12T12:15:21;96927.69;;;34.64;35.29
40838;BME280;29632;49.168;9.848;2023-08-12T12:17:49;96924.97;;;34.64;34.93
40838;BME280;29632;49.168;9.848;2023-08-12T12:20:15;96930.38;;;34.64;35.05
40838;BME280;29632;49.168;9.848;2023-08-12T12:22:43;96920.66;;;34.63;34.73
40838;BME280;29632;49.168;9.848;2023-08-12T12:25:12;96921.28;;;34.60;34.34
40838;BME280;29632;49.168;9.848;2023-08-12T12:27:39;96922.31;;;34.45;35.63
40838;BME280;29632;49.168;9.848;2023-08-12T12:30:07;96935.53;;;34.47;35.21
40838;BME280;29632;49.168;9.848;2023-08-12T12:32:33;96941.53;;;34.43;35.21
40838;BME280;29632;49.168;9.848;2023-08-12T12:34:59;96939.41;;;34.40;35.08
40838;BME280;29632;49.168;9.848;2023-08-12T12:37:25;96943.81;;;34.36;35.45
40838;BME280;29632;49.168;9.848;2023-08-12T12:39:51;96941.47;;;34.30;35.25
40838;BME280;29632;49.168;9.848;2023-08-12T12:42:17;96951.06;;;34.22;35.58
40838;BME280;29632;49.168;9.848;2023-08-12T12:44:43;96951.63;;;34.19;35.58
40838;BME280;29632;49.168;9.848;2023-08-12T12:47:08;96965.41;;;34.17;35.20
40838;BME280;29632;49.168;9.848;2023-08-12T12:49:36;96971.38;;;34.14;35.80
40838;BME280;29632;49.168;9.848;2023-08-12T12:52:02;96976.34;;;34.07;35.92
40838;BME280;29632;49.168;9.848;2023-08-12T12:54:27;96967.81;;;34.00;35.71
40838;BME280;29632;49.168;9.848;2023-08-12T12:56:55;96980.94;;;33.88;35.87
40838;BME280;29632;49.168;9.848;2023-08-12T12:59:20;96982.75;;;33.73;36.30
40838;BME280;29632;49.168;9.848;2023-08-12T13:01:46;96975.06;;;33.56;36.95